Time;durP1;ratioP1;P1;durP2;ratioP2;P2;SDS_P1;SDS_P2;PMS_P1;PMS_P2;Temp;Humidity;BMP_temperature;BMP_pressure;BME280_temperature;BME280_humidity;BME280_pressure;Samples;Min_cycle;Max_cycle;Signal;HPM_P1;HPM_P2
2022/01/22 00:00:21;;;;;;;12.05;5.85;;;;;;;-149.78;100.00;50463.63;5066163;28;20442;-68
2022/01/22 00:02:47;;;;;;;13.63;6.40;;;;;;;-149.78;100.00;50422.56;5066675;28;20036;-68
2022/01/22 00:05:14;;;;;;;12.93;5.60;;;;;;;-149.78;100.00;50463.63;5066063;28;20028;-68
2022/01/22 00:07:40;;;;;;;14.13;6.07;;;;;;;-149.78;100.00;50447.97;5062165;28;20032;-67
2022/01/22 00:10:13;;;;;;;13.88;6.20;;;;;;;-149.78;100.00;50475.34;5063075;28;20110;-68
2022/01/22 00:15:08;;;;;;;15.82;5.35;;;;;;;-149.78;100.00;50451.88;5063466;28;20032;-68
2022/01/22 00:17:33;;;;;;;13.07;5.90;;;;;;;-149.78;100.00;50459.72;5062800;28;20032;-68
2022/01/22 00:19:59;;;;;;;12.80;6.13;;;;;;;-149.78;100.00;50473.41;5066298;28;20126;-68
2022/01/22 00:22:29;;;;;;;11.55;5.30;;;;;;;-149.78;100.00;50447.97;5066900;28;20475;-62
2022/01/22 00:24:58;;;;;;;14.95;5.40;;;;;;;-149.78;100.00;50455.81;5067442;28;20077;-62
2022/01/22 00:27:25;;;;;;;10.00;5.65;;;;;;;-149.78;100.00;50455.81;5051156;28;20041;-61
2022/01/22 00:29:50;;;;;;;10.70;5.55;;;;;;;-149.78;100.00;50467.53;5067700;28;20028;-61
2022/01/22 00:32:16;;;;;;;9.90;5.47;;;;;;;-149.78;100.00;50414.72;5067057;28;20039;-61
2022/01/22 00:34:42;;;;;;;16.17;5.60;;;;;;;-149.78;100.00;50467.53;5067673;28;20064;-61
2022/01/22 00:37:08;;;;;;;10.43;5.15;;;;;;;-149.78;100.00;50455.81;5066366;28;20044;-61
2022/01/22 00:39:34;;;;;;;11.02;5.32;;;;;;;-149.78;100.00;50477.31;5065946;28;20519;-62
2022/01/22 00:42:02;;;;;;;11.30;5.20;;;;;;;-149.78;100.00;50440.16;5050231;28;20475;-61
2022/01/22 00:44:28;;;;;;;12.48;5.32;;;;;;;-149.78;100.00;50459.72;5064962;28;20049;-61
2022/01/22 00:46:54;;;;;;;12.45;5.20;;;;;;;-149.78;100.00;50494.91;5067085;28;20038;-61
2022/01/22 00:49:20;;;;;;;10.23;5.07;;;;;;;-149.78;100.00;50471.44;5048286;28;20040;-61
2022/01/22 00:51:46;;;;;;;10.25;5.10;;;;;;;-149.78;100.00;50461.66;5066822;28;20040;-61
2022/01/22 00:54:12;;;;;;;7.78;4.00;;;;;;;-149.78;100.00;50481.22;5066319;28;20151;-62
2022/01/22 00:56:38;;;;;;;12.07;4.45;;;;;;;-149.78;100.00;50467.53;5066508;28;20025;-62
2022/01/22 00:59:03;;;;;;;10.65;4.30;;;;;;;-149.78;100.00;50491.00;5067539;28;20700;-61
2022/01/22 01:01:31;;;;;;;10.05;4.40;;;;;;;-149.78;100.00;50432.31;5065325;28;20064;-61
2022/01/22 01:04:01;;;;;;;11.05;4.50;;;;;;;-149.78;100.00;50457.75;5065914;28;20042;-62
2022/01/22 01:06:29;;;;;;;15.23;5.18;;;;;;;-149.78;100.00;50471.44;5067459;28;20025;-62
2022/01/22 01:09:00;;;;;;;9.25;4.50;;;;;;;-149.78;100.00;50483.19;5065988;28;20036;-62
2022/01/22 01:11:28;;;;;;;13.70;4.60;;;;;;;-149.78;100.00;50498.81;5064996;28;20032;-62
2022/01/22 01:13:59;;;;;;;13.88;4.55;;;;;;;-149.78;100.00;50449.94;5067455;28;20537;-62
2022/01/22 01:35:20;;;;;;;11.98;4.70;;;;;;;-149.78;100.00;50514.47;5065279;28;20114;-62
2022/01/22 01:37:46;;;;;;;13.05;4.90;;;;;;;-149.78;100.00;50485.13;5046993;28;20523;-62
2022/01/22 01:40:15;;;;;;;10.82;4.90;;;;;;;-149.78;100.00;50455.81;5065189;28;20474;-62
2022/01/22 01:43:04;;;;;;;13.18;5.15;;;;;;;-149.78;100.00;50451.88;5064965;28;20695;-62
2022/01/22 01:45:30;;;;;;;11.98;5.00;;;;;;;-149.78;100.00;50473.41;5065025;28;20036;-62
2022/01/22 01:47:59;;;;;;;9.88;5.13;;;;;;;-149.78;100.00;50498.81;5066317;28;20043;-62
2022/01/22 01:50:26;;;;;;;12.02;4.95;;;;;;;-149.78;100.00;50479.28;5065356;28;20040;-62
2022/01/22 01:53:06;;;;;;;11.05;4.80;;;;;;;-149.78;100.00;50440.16;5063396;28;20025;-62
2022/01/22 01:55:46;;;;;;;14.50;5.60;;;;;;;-149.78;100.00;50459.72;5064128;28;20032;-62
2022/01/22 01:58:11;;;;;;;11.05;5.05;;;;;;;-149.78;100.00;50471.44;5064211;28;20048;-62
2022/01/22 02:00:37;;;;;;;9.38;5.10;;;;;;;-149.78;100.00;50436.25;5064609;28;20071;-62
2022/01/22 02:03:03;;;;;;;8.93;4.57;;;;;;;-149.78;100.00;50473.41;5065611;28;20052;-62
2022/01/22 02:05:29;;;;;;;12.45;5.82;;;;;;;-149.78;100.00;50459.72;5063730;28;20040;-62
2022/01/22 02:07:55;;;;;;;12.52;5.85;;;;;;;-149.78;100.00;50434.28;5064631;28;20040;-62
2022/01/22 02:10:26;;;;;;;15.23;5.63;;;;;;;-149.78;100.00;50471.44;5064599;28;20498;-62
2022/01/22 02:26:05;;;;;;;15.52;6.47;;;;;;;-149.78;100.00;50520.34;5064543;28;20033;-62
2022/01/22 02:28:32;;;;;;;12.45;5.93;;;;;;;-149.78;100.00;50471.44;5065539;28;20029;-62
2022/01/22 02:31:17;;;;;;;14.07;5.85;;;;;;;-149.78;100.00;50467.53;5067756;28;20044;-62
2022/01/22 02:41:20;;;;;;;19.45;7.13;;;;;;;-149.78;100.00;50491.00;5069784;28;20048;-62
2022/01/22 02:43:47;;;;;;;13.07;5.80;;;;;;;-149.78;100.00;50451.88;5065974;28;20119;-62
2022/01/22 02:46:17;;;;;;;14.50;6.57;;;;;;;-149.78;100.00;50447.97;5046354;28;20039;-62
2022/01/22 02:48:42;;;;;;;16.35;6.18;;;;;;;-149.78;100.00;50444.06;5068712;28;20040;-62
2022/01/22 02:51:08;;;;;;;14.43;6.50;;;;;;;-149.78;100.00;50469.50;5067663;28;20377;-62
2022/01/22 02:53:33;;;;;;;14.35;6.50;;;;;;;-149.78;100.00;50475.34;5068316;28;20396;-62
2022/01/22 02:56:01;;;;;;;15.85;7.05;;;;;;;-149.78;100.00;50463.63;5067778;28;20829;-62
2022/01/22 02:58:27;;;;;;;18.58;6.80;;;;;;;-149.78;100.00;50475.34;5067846;28;20032;-62
2022/01/22 03:00:53;;;;;;;15.68;6.43;;;;;;;-149.78;100.00;50477.31;5070080;28;20055;-62
2022/01/22 03:03:19;;;;;;;15.45;6.78;;;;;;;-149.78;100.00;50487.09;5067880;28;20040;-62
2022/01/22 03:05:44;;;;;;;15.32;7.53;;;;;;;-149.78;100.00;50498.81;5069734;28;20028;-62
2022/01/22 03:08:12;;;;;;;16.48;6.47;;;;;;;-149.78;100.00;50483.19;5051155;28;20414;-62
2022/01/22 03:10:44;;;;;;;15.57;6.32;;;;;;;-149.78;100.00;50463.63;5069005;28;20064;-62
2022/01/22 03:13:50;;;;;;;16.20;7.38;;;;;;;-149.78;100.00;50510.56;5049197;28;20029;-62
2022/01/22 03:18:58;;;;;;;13.73;6.68;;;;;;;-149.78;100.00;50459.72;5017813;28;20048;-62
2022/01/22 03:29:21;;;;;;;17.67;7.07;;;;;;;-149.78;100.00;50453.84;5068522;28;20388;-62
2022/01/22 03:31:47;;;;;;;17.25;6.93;;;;;;;-149.78;100.00;50444.06;5065175;28;20387;-62
2022/01/22 03:34:14;;;;;;;14.65;6.55;;;;;;;-149.78;100.00;50432.31;5066550;28;20599;-62
2022/01/22 03:36:40;;;;;;;17.75;7.22;;;;;;;-149.78;100.00;50451.88;5069088;28;20369;-62
2022/01/22 03:39:08;;;;;;;11.77;5.47;;;;;;;-149.78;100.00;50467.53;5064982;28;20039;-62
2022/01/22 03:41:35;;;;;;;14.02;5.95;;;;;;;-149.78;100.00;50475.34;5066950;28;20504;-62
2022/01/22 03:44:00;;;;;;;12.00;5.15;;;;;;;-149.78;100.00;50444.06;5068078;28;20025;-62
2022/01/22 03:46:26;;;;;;;12.32;5.88;;;;;;;-149.78;100.00;50483.19;5068169;28;20475;-62
2022/01/22 03:48:52;;;;;;;13.43;5.03;;;;;;;-149.78;100.00;50440.16;5068308;28;20502;-62
2022/01/22 03:51:18;;;;;;;14.93;5.22;;;;;;;-149.78;100.00;50444.06;5050740;28;20036;-62
2022/01/22 03:53:44;;;;;;;9.95;4.90;;;;;;;-149.78;100.00;50483.19;5069278;28;20103;-62
2022/01/22 03:56:11;;;;;;;13.18;5.38;;;;;;;-149.78;100.00;50467.53;5065409;28;20119;-62
2022/01/22 03:58:39;;;;;;;11.05;5.40;;;;;;;-149.78;100.00;50432.31;5065477;28;20060;-62
2022/01/22 04:04:08;;;;;;;9.30;4.50;;;;;;;-149.78;100.00;50420.59;5068248;28;20040;-62
2022/01/22 04:09:08;;;;;;;9.00;4.30;;;;;;;-149.78;100.00;50496.88;5067658;28;20040;-62
2022/01/22 04:11:38;;;;;;;10.13;3.92;;;;;;;-149.78;100.00;50471.44;5068580;28;20054;-62
2022/01/22 04:14:06;;;;;;;8.70;3.97;;;;;;;-149.78;100.00;50477.31;5066704;28;20099;-62
2022/01/22 04:16:42;;;;;;;9.43;4.20;;;;;;;-149.78;100.00;50487.09;5067695;28;20041;-62
2022/01/22 04:24:57;;;;;;;7.78;3.67;;;;;;;-149.78;100.00;50432.31;5067551;28;20094;-62
2022/01/22 04:27:27;;;;;;;8.95;3.70;;;;;;;-149.78;100.00;50467.53;5065109;28;20380;-62
2022/01/22 04:29:58;;;;;;;7.43;3.55;;;;;;;-149.78;100.00;50475.34;5068107;28;20180;-62
2022/01/22 04:32:25;;;;;;;7.05;3.40;;;;;;;-149.78;100.00;50475.34;5062930;28;20025;-62
2022/01/22 04:34:51;;;;;;;6.45;2.90;;;;;;;-149.78;100.00;50440.16;5068130;28;20058;-62
2022/01/22 04:37:20;;;;;;;5.97;2.83;;;;;;;-149.78;100.00;50473.41;5067440;28;20396;-62
2022/01/22 04:39:47;;;;;;;5.43;2.80;;;;;;;-149.78;100.00;50494.91;5067552;28;20040;-62
2022/01/22 04:42:18;;;;;;;8.82;2.90;;;;;;;-149.78;100.00;50467.53;5066858;28;20951;-62
2022/01/22 04:44:55;;;;;;;4.38;2.55;;;;;;;-149.78;100.00;50479.28;5067592;28;20387;-62
2022/01/22 04:54:57;;;;;;;3.95;2.10;;;;;;;-149.78;100.00;50487.09;5066025;28;20181;-62
2022/01/22 04:55:29;;;;;;;3.10;2.00;;;;;;;-149.78;100.00;50459.72;5067008;28;20064;-62
2022/01/22 04:57:54;;;;;;;4.53;1.98;;;;;;;-149.78;100.00;50500.78;5065043;28;20700;-62
2022/01/22 05:00:20;;;;;;;3.92;2.25;;;;;;;-149.78;100.00;50467.53;5066543;28;20091;-62
2022/01/22 05:02:46;;;;;;;3.95;1.90;;;;;;;-149.78;100.00;50494.91;5067410;28;20036;-62
2022/01/22 05:05:12;;;;;;;4.53;2.45;;;;;;;-149.78;100.00;50471.44;5065423;28;20036;-62
2022/01/22 05:07:37;;;;;;;2.33;1.50;;;;;;;-149.78;100.00;50471.44;5066725;28;20074;-61
2022/01/22 05:10:05;;;;;;;4.18;2.10;;;;;;;-149.78;100.00;50473.41;5048259;28;20032;-61
2022/01/22 05:12:31;;;;;;;4.38;2.38;;;;;;;-149.78;100.00;50469.50;5046866;28;20083;-61
2022/01/22 05:14:56;;;;;;;3.72;1.88;;;;;;;-149.78;100.00;50475.34;5066320;28;20029;-61
2022/01/22 05:17:22;;;;;;;3.53;1.73;;;;;;;-149.78;100.00;50451.88;5062682;28;20221;-61
2022/01/22 05:22:31;;;;;;;7.30;2.20;;;;;;;-149.78;100.00;50489.03;5068310;28;20036;-61
2022/01/22 05:25:02;;;;;;;4.00;2.00;;;;;;;-149.78;100.00;50491.00;5067909;28;20128;-61
2022/01/22 05:27:46;;;;;;;3.40;1.90;;;;;;;-149.78;100.00;50487.09;5047435;28;20063;-61
2022/01/22 05:38:05;;;;;;;2.67;1.65;;;;;;;-149.78;100.00;50455.81;5065278;28;20098;-61
2022/01/22 05:40:31;;;;;;;4.28;2.08;;;;;;;-149.78;100.00;50451.88;5066477;28;20033;-68
2022/01/22 05:42:57;;;;;;;4.00;1.60;;;;;;;-149.78;100.00;50483.19;5065761;28;20029;-68
2022/01/22 05:45:22;;;;;;;2.97;1.70;;;;;;;-149.78;100.00;50498.81;5065398;28;20037;-68
2022/01/22 05:47:48;;;;;;;2.92;1.80;;;;;;;-149.78;100.00;50467.53;5065738;28;20617;-68
2022/01/22 05:50:27;;;;;;;4.07;1.60;;;;;;;-149.78;100.00;50440.16;5065790;28;20032;-67
2022/01/22 05:52:58;;;;;;;2.33;1.70;;;;;;;-149.78;100.00;50479.28;5047557;28;20032;-67
2022/01/22 06:00:34;;;;;;;4.88;2.10;;;;;;;-149.78;100.00;50471.44;5064373;28;20123;-67
2022/01/22 06:02:59;;;;;;;3.63;2.13;;;;;;;-149.78;100.00;50432.31;5066665;28;20115;-68
2022/01/22 06:05:25;;;;;;;3.58;1.85;;;;;;;-149.78;100.00;50471.44;5065885;28;20836;-68
2022/01/22 06:07:51;;;;;;;4.40;2.17;;;;;;;-149.78;100.00;50506.66;5064836;28;20364;-68
2022/01/22 06:10:18;;;;;;;6.45;2.28;;;;;;;-149.78;100.00;50455.81;5064973;28;20033;-68
2022/01/22 06:15:17;;;;;;;3.30;2.08;;;;;;;-149.78;100.00;50498.81;5065220;28;20032;-68
2022/01/22 06:17:42;;;;;;;4.97;2.33;;;;;;;-149.78;100.00;50436.25;5063466;28;20506;-68
2022/01/22 06:20:12;;;;;;;4.28;2.22;;;;;;;-149.78;100.00;50481.22;5064811;28;20040;-68
2022/01/22 06:22:39;;;;;;;4.55;1.95;;;;;;;-149.78;100.00;50455.81;5064329;28;20031;-68
2022/01/22 06:25:05;;;;;;;4.53;2.40;;;;;;;-149.78;100.00;50491.00;5064843;28;20048;-68
2022/01/22 06:27:32;;;;;;;7.55;2.60;;;;;;;-149.78;100.00;50498.81;5062770;28;20028;-68
2022/01/22 06:29:57;;;;;;;6.45;2.33;;;;;;;-149.78;100.00;50459.72;5068449;28;20419;-68
2022/01/22 06:32:24;;;;;;;4.78;2.85;;;;;;;-149.78;100.00;50449.94;5065634;28;20424;-68
2022/01/22 06:34:49;;;;;;;6.53;2.72;;;;;;;-149.78;100.00;50459.72;5065012;28;20028;-68
2022/01/22 06:37:15;;;;;;;6.18;2.85;;;;;;;-149.78;100.00;50522.28;5064710;28;20060;-68
2022/01/22 06:41:44;;;;;;;7.13;3.10;;;;;;;-149.78;100.00;50467.53;5065101;28;20045;-68
2022/01/22 06:42:26;;;;;;;6.90;2.92;;;;;;;-149.78;100.00;50447.97;5064871;28;20032;-68
2022/01/22 06:44:52;;;;;;;8.55;3.17;;;;;;;-149.78;100.00;50491.00;5064582;28;20044;-68
2022/01/22 06:47:18;;;;;;;6.90;3.15;;;;;;;-149.78;100.00;50510.56;5065300;28;20040;-68
2022/01/22 06:49:44;;;;;;;6.65;2.90;;;;;;;-149.78;100.00;50514.47;5064581;28;20039;-68
2022/01/22 06:52:10;;;;;;;6.55;2.90;;;;;;;-149.78;100.00;50506.66;5065497;28;20032;-69
2022/01/22 06:54:35;;;;;;;7.32;3.38;;;;;;;-149.78;100.00;50463.63;5065179;28;20131;-68
2022/01/22 06:57:01;;;;;;;9.98;3.50;;;;;;;-149.78;100.00;50440.16;5046123;28;20048;-68
2022/01/22 06:59:27;;;;;;;9.25;3.65;;;;;;;-149.78;100.00;50471.44;5061586;28;20033;-68
2022/01/22 07:01:54;;;;;;;7.43;3.70;;;;;;;-149.78;100.00;50483.19;5063437;28;20032;-68
2022/01/22 07:04:21;;;;;;;11.75;4.03;;;;;;;-149.78;100.00;50498.81;5053081;28;20036;-68
2022/01/22 07:06:47;;;;;;;15.98;4.00;;;;;;;-149.78;100.00;50481.22;5052607;28;20029;-68
2022/01/22 07:09:13;;;;;;;10.77;4.32;;;;;;;-149.78;100.00;50487.09;5052420;28;20081;-68
2022/01/22 07:11:39;;;;;;;15.20;4.82;;;;;;;-149.78;100.00;50487.09;5052493;28;20037;-69
2022/01/22 07:14:05;;;;;;;11.02;4.22;;;;;;;-149.78;100.00;50502.75;5051621;28;20043;-68
2022/01/22 07:16:31;;;;;;;8.32;4.00;;;;;;;-149.78;100.00;50471.44;5052245;28;20090;-68
2022/01/22 07:19:01;;;;;;;12.25;3.90;;;;;;;-149.78;100.00;50479.28;5056093;28;20032;-68
2022/01/22 07:21:29;;;;;;;8.57;4.18;;;;;;;-149.78;100.00;50485.13;5057487;28;20032;-68
2022/01/22 07:26:31;;;;;;;7.22;3.70;;;;;;;-149.78;100.00;50475.34;5055409;28;20024;-62
2022/01/22 07:28:57;;;;;;;9.73;3.85;;;;;;;-149.78;100.00;50412.78;5054835;28;20055;-62
2022/01/22 07:31:26;;;;;;;6.60;3.72;;;;;;;-149.78;100.00;50463.63;5037630;28;20081;-62
2022/01/22 07:33:52;;;;;;;8.85;4.35;;;;;;;-149.78;100.00;50483.19;5039851;28;20488;-62
2022/01/22 07:36:17;;;;;;;10.25;4.10;;;;;;;-149.78;100.00;50487.09;5041163;28;20056;-68
2022/01/22 07:38:43;;;;;;;9.05;4.00;;;;;;;-149.78;100.00;50479.28;5057963;28;20131;-68
2022/01/22 07:41:12;;;;;;;11.38;3.92;;;;;;;-149.78;100.00;50467.53;5058298;28;20090;-68
2022/01/22 07:43:38;;;;;;;9.40;4.22;;;;;;;-149.78;100.00;50455.81;5058567;28;20495;-68
2022/01/22 07:46:06;;;;;;;8.32;4.20;;;;;;;-149.78;100.00;50510.56;5057223;28;20605;-68
2022/01/22 07:48:32;;;;;;;11.43;4.18;;;;;;;-149.78;100.00;50502.75;5055302;28;20043;-68
2022/01/22 07:50:58;;;;;;;8.23;3.80;;;;;;;-149.78;100.00;50457.75;5058791;28;20119;-67
2022/01/22 07:53:24;;;;;;;7.95;3.90;;;;;;;-149.78;100.00;50463.63;5056115;28;20170;-68
2022/01/22 07:55:51;;;;;;;14.85;4.25;;;;;;;-149.78;100.00;50491.00;5035078;28;20055;-68
2022/01/22 07:58:17;;;;;;;8.43;3.17;;;;;;;-149.78;100.00;50467.53;5053988;28;20039;-68
2022/01/22 08:00:43;;;;;;;10.00;4.22;;;;;;;-149.78;100.00;50463.63;5057499;28;20025;-68
2022/01/22 08:03:09;;;;;;;9.48;3.80;;;;;;;-149.78;100.00;50467.53;5055588;28;20044;-68
2022/01/22 08:05:35;;;;;;;9.25;4.15;;;;;;;-149.78;100.00;50455.81;5054660;28;20123;-68
2022/01/22 08:08:01;;;;;;;8.98;3.58;;;;;;;-149.78;100.00;50494.91;5051848;28;20049;-68
2022/01/22 08:10:27;;;;;;;12.52;4.13;;;;;;;-149.78;100.00;50451.88;5053815;28;20036;-68
2022/01/22 08:12:53;;;;;;;9.57;3.65;;;;;;;-149.78;100.00;50467.53;5053068;28;20029;-68
2022/01/22 08:15:20;;;;;;;7.78;3.70;;;;;;;-149.78;100.00;50469.50;5050968;28;20111;-67
2022/01/22 08:17:46;;;;;;;10.15;4.15;;;;;;;-149.78;100.00;50473.41;5050150;28;20068;-68
2022/01/22 08:20:14;;;;;;;12.05;3.90;;;;;;;-149.78;100.00;50483.19;5052420;28;20028;-67
2022/01/22 08:22:41;;;;;;;10.23;3.88;;;;;;;-149.78;100.00;50471.44;5055102;28;20120;-67
2022/01/22 08:25:07;;;;;;;6.80;3.55;;;;;;;-149.78;100.00;50487.09;5062493;28;20036;-68
2022/01/22 08:27:40;;;;;;;9.60;3.95;;;;;;;-149.78;100.00;50485.13;5064506;28;20029;-68
2022/01/22 08:30:09;;;;;;;6.85;3.45;;;;;;;-149.78;100.00;50463.63;5064931;28;20036;-68
2022/01/22 08:37:48;;;;;;;10.38;3.53;;;;;;;-149.78;100.00;50467.53;5063127;28;20388;-68
2022/01/22 08:40:13;;;;;;;7.00;2.88;;;;;;;-149.78;100.00;50481.22;5063521;28;20044;-68
2022/01/22 08:42:40;;;;;;;9.40;3.28;;;;;;;-149.78;100.00;50487.09;5063513;28;20460;-61
2022/01/22 08:45:06;;;;;;;7.22;2.80;;;;;;;-149.78;100.00;50438.19;5062004;28;20169;-63
2022/01/22 08:47:32;;;;;;;11.07;3.13;;;;;;;-149.78;100.00;50508.59;5061118;28;20530;-63
2022/01/22 08:49:58;;;;;;;12.43;3.45;;;;;;;-149.78;100.00;50434.28;5062572;28;20032;-63
2022/01/22 08:52:28;;;;;;;8.98;2.97;;;;;;;-149.78;100.00;50451.88;5046112;28;20749;-63
2022/01/22 08:54:54;;;;;;;6.85;3.50;;;;;;;-149.78;100.00;50459.72;5043117;28;20036;-62
2022/01/22 08:57:20;;;;;;;9.20;3.33;;;;;;;-149.78;100.00;50467.53;5062560;28;20038;-62
2022/01/22 08:59:46;;;;;;;6.47;3.40;;;;;;;-149.78;100.00;50459.72;5063235;28;20036;-62
2022/01/22 09:02:14;;;;;;;7.25;3.05;;;;;;;-149.78;100.00;50483.19;5061154;28;20048;-62
2022/01/22 09:04:40;;;;;;;6.22;3.42;;;;;;;-149.78;100.00;50432.31;5043344;28;20067;-62
2022/01/22 09:07:06;;;;;;;7.35;2.55;;;;;;;-149.78;100.00;50447.97;5061740;28;20047;-62
2022/01/22 09:09:32;;;;;;;6.97;2.60;;;;;;;-149.78;100.00;50449.94;5062136;28;20068;-62
2022/01/22 09:11:57;;;;;;;7.32;2.72;;;;;;;-149.78;100.00;50498.81;5062147;28;20033;-61
2022/01/22 09:14:23;;;;;;;8.82;3.28;;;;;;;-149.78;100.00;50479.28;5061126;28;20489;-62
2022/01/22 09:16:51;;;;;;;6.57;2.70;;;;;;;-149.78;100.00;50506.66;5062327;28;20115;-62
2022/01/22 09:19:17;;;;;;;7.70;2.92;;;;;;;-149.78;100.00;50479.28;5060614;28;20036;-62
2022/01/22 09:21:46;;;;;;;7.28;2.75;;;;;;;-149.78;100.00;50498.81;5060324;28;20404;-62
2022/01/22 09:24:15;;;;;;;5.22;2.90;;;;;;;-149.78;100.00;50475.34;5058372;28;20036;-62
2022/01/22 09:26:42;;;;;;;7.47;2.50;;;;;;;-149.78;100.00;50485.13;5059144;28;20025;-62
2022/01/22 09:29:08;;;;;;;9.32;3.00;;;;;;;-149.78;100.00;50463.63;5061880;28;20514;-62
2022/01/22 09:31:34;;;;;;;8.00;2.70;;;;;;;-149.78;100.00;50424.50;5063016;28;20040;-62
2022/01/22 09:34:01;;;;;;;4.70;2.25;;;;;;;-149.78;100.00;50447.97;5059982;28;20040;-62
2022/01/22 09:36:29;;;;;;;6.80;2.70;;;;;;;-149.78;100.00;50498.81;5060862;28;20053;-62
2022/01/22 09:38:55;;;;;;;5.72;2.42;;;;;;;-149.78;100.00;50449.94;5061964;28;20119;-62
2022/01/22 09:41:23;;;;;;;6.65;2.63;;;;;;;-149.78;100.00;50424.50;5060724;28;20132;-62
2022/01/22 09:43:50;;;;;;;4.57;2.30;;;;;;;-149.78;100.00;50463.63;5061635;28;20036;-61
2022/01/22 09:46:15;;;;;;;4.85;2.42;;;;;;;-149.78;100.00;50481.22;5061389;28;20455;-62
2022/01/22 09:48:46;;;;;;;4.40;2.58;;;;;;;-149.78;100.00;50447.97;5027237;28;20061;-62
2022/01/22 09:51:12;;;;;;;5.90;2.85;;;;;;;-149.78;100.00;50485.13;5062541;28;20445;-62
2022/01/22 09:53:40;;;;;;;6.93;2.88;;;;;;;-149.78;100.00;50463.63;5059322;28;20304;-63
2022/01/22 09:56:06;;;;;;;6.72;2.72;;;;;;;-149.78;100.00;50459.72;5062823;28;20134;-63
2022/01/22 09:58:32;;;;;;;5.78;2.33;;;;;;;-149.78;100.00;50459.72;5064533;28;20126;-63
2022/01/22 10:01:21;;;;;;;4.65;2.60;;;;;;;-149.78;100.00;50475.34;5063069;28;20067;-63
2022/01/22 10:03:47;;;;;;;5.22;2.42;;;;;;;-149.78;100.00;50463.63;5061420;28;20062;-69
2022/01/22 10:06:22;;;;;;;5.55;2.40;;;;;;;-149.78;100.00;50444.06;5062868;28;20040;-69
2022/01/22 10:08:48;;;;;;;7.40;2.60;;;;;;;-149.78;100.00;50455.81;5063682;28;20107;-69
2022/01/22 10:11:26;;;;;;;5.80;2.42;;;;;;;-149.78;100.00;50447.97;5063344;28;20123;-69
2022/01/22 10:13:58;;;;;;;4.35;2.40;;;;;;;-149.78;100.00;50432.31;5063692;28;20036;-69
2022/01/22 10:16:29;;;;;;;5.68;2.70;;;;;;;-149.78;100.00;50451.88;5061763;28;20033;-69
2022/01/22 10:19:21;;;;;;;10.48;2.80;;;;;;;-149.78;100.00;50440.16;5060907;28;20078;-68
2022/01/22 10:21:56;;;;;;;6.15;3.13;;;;;;;-149.78;100.00;50453.84;5058624;28;20207;-69
2022/01/22 10:24:22;;;;;;;5.25;2.65;;;;;;;-149.78;100.00;50471.44;5057915;28;20458;-70
2022/01/22 10:27:39;;;;;;;9.90;2.22;;;;;;;-149.78;100.00;50483.19;5061831;28;20063;-70
2022/01/22 10:30:13;;;;;;;7.97;2.90;;;;;;;-149.78;100.00;50459.72;5061662;28;20036;-69
2022/01/22 10:35:13;;;;;;;7.03;2.38;;;;;;;-149.78;100.00;50440.16;5056136;28;20068;-69
2022/01/22 10:37:39;;;;;;;6.35;2.58;;;;;;;-149.78;100.00;50459.72;5058997;28;20040;-69
2022/01/22 10:40:27;;;;;;;13.55;2.70;;;;;;;-149.78;100.00;50447.97;5062594;28;20402;-68
2022/01/22 10:43:34;;;;;;;4.72;1.98;;;;;;;-149.78;100.00;50471.44;5060248;28;20037;-70
2022/01/22 10:46:14;;;;;;;5.70;2.30;;;;;;;-149.78;100.00;50455.81;5061674;28;20817;-69
2022/01/22 10:48:53;;;;;;;13.40;2.75;;;;;;;-149.78;100.00;50471.44;5057412;28;20060;-68
2022/01/22 10:51:20;;;;;;;8.32;2.20;;;;;;;-149.78;100.00;50489.03;5044276;28;20064;-68
2022/01/22 10:53:50;;;;;;;9.27;4.43;;;;;;;-149.78;100.00;50463.63;5065003;28;20132;-68
2022/01/22 10:56:17;;;;;;;5.93;2.55;;;;;;;-149.78;100.00;50432.31;5063710;28;20028;-68
2022/01/22 10:59:08;;;;;;;4.85;2.53;;;;;;;-149.78;100.00;50451.88;5062538;28;20519;-67
2022/01/22 11:01:43;;;;;;;6.57;2.60;;;;;;;-149.78;100.00;50471.44;5065058;28;20047;-67
2022/01/22 11:04:12;;;;;;;5.50;2.15;;;;;;;-149.78;100.00;50453.84;5065282;28;20036;-68
2022/01/22 11:06:58;;;;;;;8.27;2.50;;;;;;;-149.78;100.00;50418.63;5065512;28;20086;-68
2022/01/22 11:09:26;;;;;;;5.80;2.85;;;;;;;-149.78;100.00;50412.78;5066053;28;20025;-69
2022/01/22 11:11:53;;;;;;;6.00;2.30;;;;;;;-149.78;100.00;50416.69;5066869;28;20534;-69
2022/01/22 11:14:19;;;;;;;4.38;2.50;;;;;;;-149.78;100.00;50477.31;5047600;28;20075;-68
2022/01/22 11:16:47;;;;;;;5.05;2.15;;;;;;;-149.78;100.00;50444.06;5049995;28;20605;-68
2022/01/22 11:19:19;;;;;;;7.72;2.53;;;;;;;-149.78;100.00;50471.44;5064251;28;20058;-68
2022/01/22 11:21:48;;;;;;;6.22;2.20;;;;;;;-149.78;100.00;50440.16;5062808;28;20051;-67
2022/01/22 11:24:20;;;;;;;4.30;2.10;;;;;;;-149.78;100.00;50432.31;5064640;28;20376;-67
2022/01/22 11:26:48;;;;;;;;;;;;;;;-149.78;100.00;50471.44;5066173;28;20033;-66
2022/01/22 11:29:16;;;;;;;6.28;2.30;;;;;;;-149.78;100.00;50451.88;5047736;28;20328;-67
2022/01/22 11:31:45;;;;;;;11.13;2.55;;;;;;;-149.78;100.00;50434.28;5065304;28;20033;-67
2022/01/22 11:34:17;;;;;;;3.63;2.30;;;;;;;-149.78;100.00;50436.25;5064895;28;21417;-68
2022/01/22 11:36:57;;;;;;;10.67;2.80;;;;;;;-149.78;100.00;50455.81;5047486;28;20044;-67
2022/01/22 11:39:25;;;;;;;6.05;2.45;;;;;;;-149.78;100.00;50420.59;5064325;28;20047;-67
2022/01/22 11:41:57;;;;;;;8.77;3.85;;;;;;;-149.78;100.00;50389.31;5064922;28;20024;-67
2022/01/22 11:45:02;;;;;;;5.03;2.30;;;;;;;-149.78;100.00;50401.03;5061995;28;20604;-68
2022/01/22 11:47:27;;;;;;;5.72;2.22;;;;;;;-149.78;100.00;50434.28;5065214;28;20056;-68
2022/01/22 11:50:10;;;;;;;5.65;2.45;;;;;;;-149.78;100.00;50408.84;5063734;28;20033;-67
2022/01/22 11:52:38;;;;;;;5.45;2.40;;;;;;;-149.78;100.00;50385.38;5063671;28;20124;-67
2022/01/22 11:55:15;;;;;;;3.63;2.17;;;;;;;-149.78;100.00;50467.53;5067528;28;20075;-67
2022/01/22 11:57:45;;;;;;;8.25;2.50;;;;;;;-149.78;100.00;50432.31;5065898;28;20029;-67
2022/01/22 12:00:22;;;;;;;7.00;2.00;;;;;;;-149.78;100.00;50377.56;5065985;28;20033;-67
2022/01/22 12:03:03;;;;;;;9.88;2.60;;;;;;;-149.78;100.00;50401.03;5066297;28;20484;-67
2022/01/22 12:05:29;;;;;;;5.05;2.20;;;;;;;-149.78;100.00;50416.69;5064681;28;20042;-67
2022/01/22 12:08:01;;;;;;;5.85;2.90;;;;;;;-149.78;100.00;50428.41;5067978;28;20086;-67
2022/01/22 12:10:39;;;;;;;6.68;3.00;;;;;;;-149.78;100.00;50416.69;5066309;28;20120;-67
2022/01/22 12:16:40;;;;;;;5.90;2.70;;;;;;;-149.78;100.00;50420.59;5066648;28;21076;-67
2022/01/22 12:19:42;;;;;;;5.63;2.63;;;;;;;-149.78;100.00;50432.31;5065632;28;20111;-67
2022/01/22 12:22:39;;;;;;;4.00;2.42;;;;;;;-149.78;100.00;50424.50;5062355;28;20094;-67
2022/01/22 12:25:27;;;;;;;8.98;2.80;;;;;;;-149.78;100.00;50438.19;5064476;28;20028;-67
2022/01/22 12:27:54;;;;;;;6.50;2.40;;;;;;;-149.78;100.00;50424.50;5053430;28;20091;-67
2022/01/22 12:30:45;;;;;;;4.40;2.50;;;;;;;-149.78;100.00;50408.84;5066119;28;20059;-62
2022/01/22 12:33:15;;;;;;;10.27;2.80;;;;;;;-149.78;100.00;50420.59;5066313;28;20082;-62
2022/01/22 12:35:41;;;;;;;3.95;2.30;;;;;;;-149.78;100.00;50424.50;5065979;28;20043;-62
2022/01/22 12:40:58;;;;;;;5.10;2.40;;;;;;;-149.78;100.00;50420.59;5066716;28;20035;-62
2022/01/22 12:43:30;;;;;;;;;;;;;;;-149.78;100.00;50365.84;5067523;28;20032;-62
2022/01/22 12:46:01;;;;;;;3.83;2.03;;;;;;;-149.78;100.00;50416.69;5066963;28;20013;-62
2022/01/22 12:48:36;;;;;;;6.93;2.25;;;;;;;-149.78;100.00;50436.25;5066801;28;20480;-62
2022/01/22 12:51:08;;;;;;;6.35;2.75;;;;;;;-149.78;100.00;50408.84;5047728;28;20423;-67
2022/01/22 12:53:35;;;;;;;6.75;2.35;;;;;;;-149.78;100.00;50424.50;5065687;28;20038;-67
2022/01/22 12:58:37;;;;;;;4.70;2.13;;;;;;;-149.78;100.00;50404.94;5064431;28;20047;-67
2022/01/22 13:01:26;;;;;;;5.15;2.28;;;;;;;-149.78;100.00;50420.59;5066873;28;20036;-67
2022/01/22 13:03:55;;;;;;;6.20;2.20;;;;;;;-149.78;100.00;50416.69;5061829;28;20032;-67